createdAt,value
2019-05-07T00:01:04.214Z,20.80
2019-05-07T00:04:08.931Z,16.40
2019-05-07T00:07:13.895Z,17.30
2019-05-07T00:10:18.423Z,20.27
2019-05-07T00:13:23.426Z,19.97
2019-05-07T00:16:27.824Z,21.57
2019-05-07T00:19:32.518Z,22.23
2019-05-07T00:22:37.210Z,17.07
2019-05-07T00:25:42.382Z,14.93
2019-05-07T00:28:46.839Z,18.97
2019-05-07T00:31:52.066Z,17.90
2019-05-07T00:35:02.520Z,17.30
2019-05-07T00:38:09.914Z,15.80
2019-05-07T00:41:29.067Z,18.50
2019-05-07T00:44:35.153Z,15.97
2019-05-07T00:47:39.537Z,15.60
2019-05-07T00:50:45.413Z,20.53
2019-05-07T00:53:51.922Z,16.53
2019-05-07T00:56:55.787Z,20.23
2019-05-07T01:00:02.175Z,19.87
2019-05-07T01:03:06.145Z,19.30
2019-05-07T01:06:12.739Z,15.60
2019-05-07T01:09:16.917Z,16.47
2019-05-07T01:12:22.230Z,18.47
2019-05-07T01:15:31.046Z,15.07
2019-05-07T01:18:33.185Z,14.80
2019-05-07T01:21:37.463Z,18.77
2019-05-07T01:24:42.950Z,13.93
2019-05-07T01:27:47.409Z,15.27
2019-05-07T01:30:52.845Z,16.10
2019-05-07T01:34:16.414Z,17.40
2019-05-07T01:37:22.934Z,14.10
2019-05-07T01:40:26.799Z,15.27
2019-05-07T01:43:32.099Z,15.17
2019-05-07T01:46:36.506Z,19.97
2019-05-07T01:49:42.178Z,14.27
2019-05-07T01:52:46.587Z,13.50
2019-05-07T01:55:52.401Z,12.80
2019-05-07T01:58:56.834Z,14.77
2019-05-07T02:02:06.104Z,20.17
2019-05-07T02:05:27.588Z,13.27
2019-05-07T02:08:53.715Z,13.43
2019-05-07T02:12:15.874Z,14.20
2019-05-07T02:15:22.504Z,19.47
2019-05-07T02:18:26.291Z,13.13
2019-05-07T02:21:32.752Z,14.80
2019-05-07T02:24:36.583Z,15.20
2019-05-07T02:27:42.076Z,16.23
2019-05-07T02:30:46.571Z,16.97
2019-05-07T02:33:53.872Z,13.13
2019-05-07T02:36:56.983Z,17.60
2019-05-07T02:40:33.653Z,15.67
2019-05-07T02:43:36.159Z,15.10
2019-05-07T02:46:54.561Z,16.50
2019-05-07T02:50:03.359Z,15.70
2019-05-07T02:53:27.338Z,16.63
2019-05-07T02:56:33.250Z,17.87
2019-05-07T02:59:37.995Z,14.17
2019-05-07T03:02:43.723Z,16.60
2019-05-07T03:05:48.352Z,14.83
2019-05-07T03:08:53.549Z,19.53
2019-05-07T03:11:57.996Z,17.93
2019-05-07T03:15:04.493Z,17.20
2019-05-07T03:18:08.591Z,14.10
2019-05-07T03:21:15.907Z,11.37
2019-05-07T03:24:26.175Z,15.87
2019-05-07T03:27:33.747Z,12.37
2019-05-07T03:30:45.670Z,16.37
2019-05-07T03:34:06.833Z,15.33
2019-05-07T03:37:13.549Z,12.37
2019-05-07T03:40:18.108Z,13.27
2019-05-07T03:43:24.068Z,14.97
2019-05-07T03:46:28.402Z,11.03
2019-05-07T03:49:34.330Z,17.30
2019-05-07T03:52:38.859Z,14.33
2019-05-07T03:55:44.744Z,15.57
2019-05-07T03:58:49.354Z,14.50
2019-05-07T04:01:53.959Z,12.73
2019-05-07T04:04:58.288Z,14.37
2019-05-07T04:08:03.496Z,15.63
2019-05-07T04:11:07.941Z,15.30
2019-05-07T04:14:13.652Z,15.77
2019-05-07T04:17:23.333Z,16.13
2019-05-07T04:20:24.191Z,16.23
2019-05-07T04:23:28.624Z,11.43
2019-05-07T04:26:42.783Z,14.87
2019-05-07T04:29:45.652Z,13.60
2019-05-07T04:32:53.001Z,11.40
2019-05-07T04:36:04.121Z,14.50
2019-05-07T04:39:09.008Z,15.73
2019-05-07T04:42:13.464Z,13.43
2019-05-07T04:45:17.833Z,13.40
2019-05-07T04:48:23.252Z,11.83
2019-05-07T04:51:34.941Z,13.80
2019-05-07T04:54:39.298Z,11.70
2019-05-07T04:57:44.005Z,10.67
2019-05-07T05:00:48.528Z,14.33
2019-05-07T05:03:54.053Z,12.47
2019-05-07T05:06:58.677Z,10.07
2019-05-07T05:10:03.202Z,12.93
2019-05-07T05:13:07.625Z,16.07
2019-05-07T05:16:23.893Z,16.17
2019-05-07T05:19:28.315Z,14.90
2019-05-07T05:22:42.381Z,13.47
2019-05-07T05:25:46.520Z,10.80
2019-05-07T05:28:52.541Z,12.10
2019-05-07T05:31:57.051Z,13.10
2019-05-07T05:35:08.515Z,13.40
2019-05-07T05:38:12.962Z,10.40
2019-05-07T05:41:17.295Z,13.43
2019-05-07T05:44:32.464Z,17.13
2019-05-07T05:47:36.987Z,13.03
2019-05-07T05:51:02.697Z,10.77
2019-05-07T05:54:29.311Z,13.00
2019-05-07T05:57:52.664Z,12.03
2019-05-07T06:01:12.952Z,8.53
2019-05-07T06:04:27.386Z,13.00
2019-05-07T06:07:36.549Z,11.73
2019-05-07T06:10:51.931Z,10.33
2019-05-07T06:14:18.572Z,10.97
2019-05-07T06:17:44.669Z,10.33
2019-05-07T06:21:02.900Z,15.73
2019-05-07T06:24:08.501Z,11.60
2019-05-07T06:27:13.183Z,10.77
2019-05-07T06:30:18.451Z,12.63
2019-05-07T06:33:23.224Z,10.73
2019-05-07T06:36:28.162Z,9.70
2019-05-07T06:39:39.112Z,12.50
2019-05-07T06:43:08.225Z,9.97
2019-05-07T06:46:12.688Z,10.93
2019-05-07T06:49:16.990Z,7.97
2019-05-07T06:52:22.406Z,12.80
2019-05-07T06:55:26.717Z,12.10
2019-05-07T06:58:55.962Z,18.93
2019-05-07T07:02:17.879Z,18.33
2019-05-07T07:05:42.435Z,10.20
2019-05-07T07:08:53.735Z,10.60
2019-05-07T07:12:02.086Z,7.93
2019-05-07T07:15:06.782Z,9.80
2019-05-07T07:18:12.254Z,10.80
2019-05-07T07:21:16.770Z,10.97
2019-05-07T07:24:22.220Z,12.43
2019-05-07T07:27:26.748Z,7.77
2019-05-07T07:30:55.955Z,15.80
2019-05-07T07:34:02.310Z,12.30
2019-05-07T07:37:16.837Z,7.53
2019-05-07T07:40:49.805Z,8.17
2019-05-07T07:43:54.566Z,8.50
2019-05-07T07:46:59.675Z,7.60
2019-05-07T07:50:04.967Z,13.10
2019-05-07T07:53:09.427Z,8.40
2019-05-07T07:56:47.877Z,5.73
2019-05-07T08:00:07.259Z,7.13
2019-05-07T08:03:13.384Z,9.63
2019-05-07T08:06:18.020Z,7.20
2019-05-07T08:09:25.519Z,7.10
2019-05-07T08:12:28.345Z,8.00
2019-05-07T08:15:33.176Z,10.80
2019-05-07T08:18:39.679Z,5.93
2019-05-07T08:21:44.154Z,7.50
2019-05-07T08:24:48.435Z,7.87
2019-05-07T08:27:52.756Z,10.67
2019-05-07T08:31:07.763Z,8.07
2019-05-07T08:34:26.106Z,15.93
2019-05-07T08:37:32.044Z,7.47
2019-05-07T08:40:36.854Z,6.33
2019-05-07T08:43:42.760Z,10.03
2019-05-07T08:47:05.461Z,11.17
2019-05-07T08:50:11.725Z,7.90
2019-05-07T08:53:15.888Z,6.97
2019-05-07T08:56:22.362Z,7.40
2019-05-07T08:59:26.772Z,11.53
2019-05-07T09:02:32.623Z,7.97
2019-05-07T09:05:37.205Z,7.77
2019-05-07T09:08:43.660Z,7.17
2019-05-07T09:11:47.802Z,9.93
2019-05-07T09:14:52.946Z,7.83
2019-05-07T09:17:59.309Z,7.27
2019-05-07T09:21:03.690Z,5.83
2019-05-07T09:24:08.684Z,8.50
2019-05-07T09:27:37.679Z,8.53
2019-05-07T09:30:52.827Z,8.53
2019-05-07T09:33:57.264Z,6.23
2019-05-07T09:37:03.298Z,6.77
2019-05-07T09:40:07.608Z,6.10
2019-05-07T09:43:12.105Z,3.37
2019-05-07T09:46:16.558Z,6.37
2019-05-07T09:49:22.251Z,7.47
2019-05-07T09:52:26.788Z,3.63
2019-05-07T09:55:32.570Z,5.13
2019-05-07T09:58:39.142Z,3.27
2019-05-07T10:01:43.269Z,5.27
2019-05-07T10:04:47.683Z,3.67
2019-05-07T10:07:52.659Z,4.03
2019-05-07T10:10:57.052Z,2.93
2019-05-07T10:14:05.286Z,5.53
2019-05-07T10:17:18.311Z,3.87
2019-05-07T10:20:23.326Z,6.37
2019-05-07T10:23:27.680Z,8.17
2019-05-07T10:26:32.278Z,8.33
2019-05-07T10:29:37.307Z,4.97
2019-05-07T10:32:42.156Z,4.23
2019-05-07T10:35:46.745Z,3.00
2019-05-07T10:38:52.041Z,4.17
2019-05-07T10:42:15.523Z,3.23
2019-05-07T10:45:42.223Z,11.57
2019-05-07T10:48:53.672Z,4.60
2019-05-07T10:51:58.096Z,4.53
2019-05-07T10:55:02.959Z,5.57
2019-05-07T10:58:07.282Z,4.87
2019-05-07T11:01:13.784Z,3.60
2019-05-07T11:04:18.108Z,4.17
2019-05-07T11:07:22.486Z,4.07
2019-05-07T11:10:26.917Z,6.10
2019-05-07T11:13:31.202Z,3.03
2019-05-07T11:16:43.080Z,2.83
2019-05-07T11:19:47.447Z,3.63
2019-05-07T11:22:52.331Z,3.80
2019-05-07T11:25:57.028Z,3.37
2019-05-07T11:29:02.403Z,5.23
2019-05-07T11:32:06.939Z,3.93
2019-05-07T11:35:14.624Z,4.87
2019-05-07T11:38:21.596Z,4.07
2019-05-07T11:41:32.977Z,3.10
2019-05-07T11:44:37.267Z,3.17
2019-05-07T11:47:41.651Z,6.03
2019-05-07T11:51:15.237Z,9.37
2019-05-07T11:54:19.782Z,6.20
2019-05-07T11:57:24.459Z,5.33
2019-05-07T12:00:33.532Z,5.70
2019-05-07T12:03:37.881Z,5.03
2019-05-07T12:06:42.275Z,4.30
2019-05-07T12:09:49.258Z,4.37
2019-05-07T12:12:53.642Z,4.50
2019-05-07T12:15:57.927Z,3.53
2019-05-07T12:19:02.440Z,3.67
2019-05-07T12:22:07.163Z,4.77
2019-05-07T12:25:12.128Z,3.40
2019-05-07T12:28:16.539Z,4.57
2019-05-07T12:31:38.768Z,5.87
2019-05-07T12:34:53.080Z,3.93
2019-05-07T12:37:58.662Z,4.60
2019-05-07T12:41:22.155Z,4.10
2019-05-07T12:44:26.654Z,5.47
2019-05-07T12:47:31.107Z,3.40
2019-05-07T12:50:35.544Z,3.00
2019-05-07T12:53:44.794Z,3.73
2019-05-07T12:56:49.594Z,3.97
2019-05-07T12:59:57.489Z,4.33
2019-05-07T13:03:33.317Z,3.73
2019-05-07T13:06:43.995Z,9.67
2019-05-07T13:09:48.410Z,7.73
2019-05-07T13:12:52.858Z,4.57
2019-05-07T13:15:59.282Z,5.47
2019-05-07T13:19:03.798Z,6.27
2019-05-07T13:22:08.335Z,8.17
2019-05-07T13:25:13.243Z,9.00
2019-05-07T13:28:19.445Z,5.40
2019-05-07T13:31:27.232Z,5.07
2019-05-07T13:34:33.817Z,4.63
2019-05-07T13:37:41.990Z,6.30
2019-05-07T13:41:05.517Z,5.57
2019-05-07T13:44:29.413Z,8.13
2019-05-07T13:47:39.581Z,6.87
2019-05-07T13:50:44.221Z,5.97
2019-05-07T13:53:49.472Z,10.70
2019-05-07T13:56:53.862Z,6.83
2019-05-07T13:59:58.559Z,9.00
2019-05-07T14:03:03.346Z,5.90
2019-05-07T14:06:08.113Z,8.90
2019-05-07T14:09:17.678Z,7.50
2019-05-07T14:12:23.067Z,6.70
2019-05-07T14:15:27.644Z,8.07
2019-05-07T14:18:32.678Z,7.73
2019-05-07T14:21:39.181Z,10.53
2019-05-07T14:24:43.473Z,6.00
2019-05-07T14:27:47.869Z,6.10
2019-05-07T14:30:52.611Z,6.07
2019-05-07T14:34:02.889Z,6.43
2019-05-07T14:37:22.100Z,6.30
2019-05-07T14:40:26.594Z,9.10
2019-05-07T14:43:48.636Z,5.13
2019-05-07T14:46:54.449Z,5.43
2019-05-07T14:49:59.063Z,6.73
2019-05-07T14:53:03.422Z,3.97
2019-05-07T14:56:07.900Z,5.77
2019-05-07T14:59:12.753Z,2.97
2019-05-07T15:02:17.635Z,6.13
2019-05-07T15:05:23.631Z,3.03
2019-05-07T15:08:28.165Z,3.33
2019-05-07T15:11:32.751Z,4.70
2019-05-07T15:14:37.509Z,4.03
2019-05-07T15:18:06.966Z,4.57
2019-05-07T15:21:12.299Z,4.43
2019-05-07T15:24:16.975Z,3.90
2019-05-07T15:27:22.772Z,6.47
2019-05-07T15:30:32.449Z,7.07
2019-05-07T15:33:38.313Z,3.87
2019-05-07T15:36:46.966Z,9.23
2019-05-07T15:39:52.699Z,7.47
2019-05-07T15:42:58.790Z,6.53
2019-05-07T15:46:04.075Z,7.40
2019-05-07T15:49:08.973Z,4.77
2019-05-07T15:52:19.369Z,5.47
2019-05-07T15:55:25.052Z,8.27
2019-05-07T15:58:33.136Z,8.53
2019-05-07T16:01:38.135Z,9.63
2019-05-07T16:04:43.425Z,8.37
2019-05-07T16:07:49.678Z,6.90
2019-05-07T16:10:55.069Z,11.07
2019-05-07T16:14:17.511Z,7.20
2019-05-07T16:17:35.376Z,6.80
2019-05-07T16:20:42.846Z,9.27
2019-05-07T16:23:47.473Z,8.93
2019-05-07T16:26:53.295Z,6.83
2019-05-07T16:29:58.290Z,6.97
2019-05-07T16:33:03.992Z,5.97
2019-05-07T16:36:09.016Z,7.60
2019-05-07T16:39:14.775Z,6.20
2019-05-07T16:42:21.840Z,7.03
2019-05-07T16:45:27.285Z,8.73
2019-05-07T16:48:32.835Z,5.90
2019-05-07T16:51:37.914Z,4.43
2019-05-07T16:54:45.141Z,7.27
2019-05-07T16:58:01.855Z,6.73
2019-05-07T17:01:09.015Z,5.60
2019-05-07T17:04:14.203Z,5.47
2019-05-07T17:07:22.083Z,6.17
2019-05-07T17:10:27.254Z,8.00
2019-05-07T17:13:32.016Z,6.30
2019-05-07T17:16:37.649Z,7.27
2019-05-07T17:19:42.616Z,6.27
2019-05-07T17:22:47.720Z,9.77
2019-05-07T17:25:52.702Z,6.53
2019-05-07T17:28:57.426Z,11.03
2019-05-07T17:32:02.445Z,7.77
2019-05-07T17:35:07.081Z,7.60
2019-05-07T17:38:12.862Z,7.17
2019-05-07T17:41:23.698Z,7.10
2019-05-07T17:44:24.203Z,9.67
2019-05-07T17:47:28.939Z,7.43
2019-05-07T17:50:42.560Z,11.13
2019-05-07T17:53:57.650Z,7.67
2019-05-07T17:56:53.890Z,13.20
2019-05-07T18:00:02.202Z,8.00
2019-05-07T18:03:26.581Z,8.07
2019-05-07T18:06:32.108Z,9.20
2019-05-07T18:09:37.657Z,13.53
2019-05-07T18:12:42.608Z,11.70
2019-05-07T18:15:48.049Z,13.13
2019-05-07T18:18:53.768Z,9.83
2019-05-07T18:21:58.418Z,11.37
2019-05-07T18:25:03.344Z,10.70
2019-05-07T18:28:08.727Z,15.43
2019-05-07T18:31:15.926Z,12.80
2019-05-07T18:34:20.564Z,13.17
2019-05-07T18:37:25.052Z,14.50
2019-05-07T18:40:29.761Z,13.03
2019-05-07T18:43:35.335Z,16.90
2019-05-07T18:46:45.082Z,22.33
2019-05-07T18:49:51.862Z,32.00
2019-05-07T18:52:57.119Z,32.43
2019-05-07T18:56:03.135Z,36.90
2019-05-07T18:59:07.667Z,41.73
2019-05-07T19:02:12.366Z,46.60
2019-05-07T19:05:19.443Z,48.90
2019-05-07T19:08:24.224Z,66.63
2019-05-07T19:11:29.582Z,64.87
2019-05-07T19:14:34.407Z,57.03
2019-05-07T19:17:39.178Z,61.80
2019-05-07T19:20:44.905Z,60.70
2019-05-07T19:23:49.477Z,51.43
2019-05-07T19:26:54.905Z,51.67
2019-05-07T19:29:59.558Z,47.57
2019-05-07T19:33:05.069Z,51.50
2019-05-07T19:36:10.977Z,51.33
2019-05-07T19:39:16.742Z,49.87
2019-05-07T19:42:21.704Z,63.27
2019-05-07T19:45:27.259Z,65.40
2019-05-07T19:48:32.431Z,62.80
2019-05-07T19:51:37.666Z,63.70
2019-05-07T19:54:57.980Z,61.90
2019-05-07T19:57:56.726Z,57.00
2019-05-07T20:01:03.823Z,54.57
2019-05-07T20:04:09.320Z,49.13
2019-05-07T20:07:14.481Z,49.53
2019-05-07T20:10:28.597Z,52.00
2019-05-07T20:13:33.962Z,51.13
2019-05-07T20:16:42.051Z,49.87
2019-05-07T20:19:46.842Z,55.30
2019-05-07T20:22:51.882Z,51.53
2019-05-07T20:25:56.851Z,46.67
2019-05-07T20:29:03.064Z,53.27
2019-05-07T20:32:08.009Z,52.40
2019-05-07T20:35:13.469Z,58.13
2019-05-07T20:38:18.151Z,55.03
2019-05-07T20:41:23.457Z,57.80
2019-05-07T20:44:28.222Z,55.33
2019-05-07T20:47:34.464Z,59.33
2019-05-07T20:50:38.938Z,65.00
2019-05-07T20:54:23.094Z,67.33
2019-05-07T20:57:42.661Z,61.83
2019-05-07T21:00:47.414Z,66.87
2019-05-07T21:03:52.695Z,73.13
2019-05-07T21:06:57.384Z,65.00
2019-05-07T21:10:02.155Z,63.03
2019-05-07T21:13:06.831Z,63.77
2019-05-07T21:16:12.657Z,66.03
2019-05-07T21:19:17.239Z,60.30
2019-05-07T21:22:22.693Z,64.17
2019-05-07T21:25:27.325Z,67.43
2019-05-07T21:28:32.506Z,62.30
2019-05-07T21:31:36.914Z,62.17
2019-05-07T21:34:42.143Z,58.43
2019-05-07T21:37:46.956Z,57.43
2019-05-07T21:40:51.645Z,59.73
2019-05-07T21:43:56.044Z,59.67
2019-05-07T21:47:04.027Z,61.00
2019-05-07T21:50:09.110Z,59.50
2019-05-07T21:53:22.731Z,57.27
2019-05-07T21:56:44.189Z,60.00
2019-05-07T21:59:48.851Z,52.07
2019-05-07T22:02:53.934Z,61.37
2019-05-07T22:05:58.475Z,56.30
2019-05-07T22:09:02.974Z,61.57
2019-05-07T22:12:07.445Z,63.63
2019-05-07T22:15:13.133Z,64.27
2019-05-07T22:18:17.606Z,66.73
2019-05-07T22:21:24.176Z,67.23
2019-05-07T22:24:28.560Z,61.43
2019-05-07T22:27:32.917Z,73.43
2019-05-07T22:30:52.786Z,66.97
2019-05-07T22:34:16.259Z,65.10
2019-05-07T22:37:21.967Z,66.07
2019-05-07T22:40:26.442Z,62.20
2019-05-07T22:43:31.855Z,62.80
2019-05-07T22:46:36.395Z,70.43
2019-05-07T22:49:42.000Z,69.23
2019-05-07T22:52:46.788Z,58.50
2019-05-07T22:55:52.553Z,64.60
2019-05-07T22:58:57.689Z,63.50
2019-05-07T23:02:03.048Z,63.23
2019-05-07T23:05:07.654Z,65.97
2019-05-07T23:08:12.792Z,68.87
2019-05-07T23:11:17.267Z,74.53
2019-05-07T23:14:22.624Z,71.03
2019-05-07T23:17:27.236Z,71.60
2019-05-07T23:20:32.056Z,74.47
2019-05-07T23:23:36.528Z,70.93
2019-05-07T23:26:48.176Z,71.27
2019-05-07T23:29:46.783Z,73.50
2019-05-07T23:32:52.839Z,69.57
2019-05-07T23:35:57.303Z,67.17
2019-05-07T23:39:02.578Z,72.97
2019-05-07T23:42:20.466Z,68.73
2019-05-07T23:45:24.837Z,74.67
2019-05-07T23:48:29.211Z,66.73
2019-05-07T23:51:33.605Z,74.43
2019-05-07T23:54:37.880Z,75.23
2019-05-07T23:57:43.080Z,69.00
